createdAt,value
2017-05-22T00:01:18.897Z,2.92
2017-05-22T00:03:47.137Z,2.65
2017-05-22T00:06:15.401Z,2.50
2017-05-22T00:08:43.652Z,2.45
2017-05-22T00:11:11.924Z,2.18
2017-05-22T00:13:40.166Z,2.57
2017-05-22T00:16:08.416Z,2.92
2017-05-22T00:18:36.648Z,2.85
2017-05-22T00:21:04.916Z,2.55
2017-05-22T00:23:33.189Z,3.02
2017-05-22T00:26:01.428Z,2.50
2017-05-22T00:28:29.688Z,2.80
2017-05-22T00:30:57.929Z,3.63
2017-05-22T00:33:26.178Z,3.53
2017-05-22T00:35:54.464Z,3.38
2017-05-22T00:38:22.734Z,3.22
2017-05-22T00:40:50.964Z,3.15
2017-05-22T00:43:19.209Z,3.08
2017-05-22T00:45:47.500Z,3.30
2017-05-22T00:48:15.754Z,2.82
2017-05-22T00:50:44.017Z,3.40
2017-05-22T00:53:12.274Z,3.32
2017-05-22T00:55:40.520Z,3.27
2017-05-22T00:58:08.785Z,3.40
2017-05-22T01:00:37.029Z,3.78
2017-05-22T01:03:05.288Z,4.10
2017-05-22T01:05:33.547Z,3.03
2017-05-22T01:08:01.833Z,3.07
2017-05-22T01:10:30.077Z,3.58
2017-05-22T01:12:58.340Z,3.33
2017-05-22T01:15:26.613Z,3.42
2017-05-22T01:17:54.876Z,3.75
2017-05-22T01:20:23.118Z,3.30
2017-05-22T01:22:51.376Z,3.70
2017-05-22T01:25:19.628Z,3.68
2017-05-22T01:27:47.971Z,4.05
2017-05-22T01:30:16.228Z,3.52
2017-05-22T01:32:44.468Z,4.18
2017-05-22T01:35:12.729Z,4.18
2017-05-22T01:37:40.994Z,3.37
2017-05-22T01:40:09.227Z,3.75
2017-05-22T01:42:37.492Z,3.22
2017-05-22T01:45:05.744Z,4.50
2017-05-22T01:47:34.009Z,4.32
2017-05-22T01:50:02.265Z,3.55
2017-05-22T01:52:30.532Z,4.05
2017-05-22T01:54:58.804Z,3.92
2017-05-22T01:57:27.036Z,4.58
2017-05-22T01:59:55.300Z,4.20
2017-05-22T02:02:23.609Z,3.93
2017-05-22T02:04:51.848Z,4.15
2017-05-22T02:07:20.101Z,4.25
2017-05-22T02:09:48.365Z,4.35
2017-05-22T02:12:16.608Z,4.78
2017-05-22T02:14:44.868Z,4.80
2017-05-22T02:17:13.117Z,5.33
2017-05-22T02:19:41.372Z,4.68
2017-05-22T02:22:09.620Z,5.10
2017-05-22T02:24:37.874Z,5.83
2017-05-22T02:27:06.148Z,5.30
2017-05-22T02:29:34.398Z,6.08
2017-05-22T02:32:02.665Z,5.93
2017-05-22T02:34:30.918Z,5.53
2017-05-22T02:36:59.161Z,6.47
2017-05-22T02:39:27.421Z,7.03
2017-05-22T02:41:55.663Z,5.90
2017-05-22T02:44:23.929Z,5.58
2017-05-22T02:46:52.176Z,5.35
2017-05-22T02:49:20.416Z,5.65
2017-05-22T02:51:48.672Z,7.08
2017-05-22T02:54:16.917Z,8.35
2017-05-22T02:56:45.190Z,8.13
2017-05-22T02:59:13.440Z,6.70
2017-05-22T03:01:41.696Z,6.70
2017-05-22T03:04:09.957Z,5.62
2017-05-22T03:06:38.200Z,6.17
2017-05-22T03:09:06.468Z,6.12
2017-05-22T03:11:34.705Z,6.12
2017-05-22T03:14:02.981Z,5.28
2017-05-22T03:16:31.220Z,6.00
2017-05-22T03:18:59.465Z,6.43
2017-05-22T03:21:27.728Z,7.30
2017-05-22T03:23:55.969Z,6.18
2017-05-22T03:26:24.237Z,5.67
2017-05-22T03:28:52.476Z,5.93
2017-05-22T03:31:20.734Z,5.75
2017-05-22T03:33:49.007Z,11.33
2017-05-22T03:36:17.287Z,13.48
2017-05-22T03:38:45.520Z,7.83
2017-05-22T03:41:13.765Z,6.63
2017-05-22T03:43:42.021Z,6.18
2017-05-22T03:46:10.254Z,6.70
2017-05-22T03:48:38.518Z,5.52
2017-05-22T03:51:06.760Z,8.52
2017-05-22T03:53:35.033Z,5.85
2017-05-22T03:56:03.269Z,5.52
2017-05-22T03:58:31.509Z,6.33
2017-05-22T04:00:59.768Z,5.88
2017-05-22T04:03:28.004Z,6.28
2017-05-22T04:05:56.257Z,5.72
2017-05-22T04:08:24.524Z,7.15
2017-05-22T04:10:52.900Z,6.12
2017-05-22T04:13:21.130Z,6.83
2017-05-22T04:15:49.369Z,6.48
2017-05-22T04:18:17.629Z,7.47
2017-05-22T04:20:45.868Z,6.08
2017-05-22T04:23:14.129Z,6.10
2017-05-22T04:25:42.389Z,7.45
2017-05-22T04:28:10.632Z,7.18
2017-05-22T04:30:38.883Z,8.10
2017-05-22T04:33:07.127Z,8.13
2017-05-22T04:35:35.388Z,7.78
2017-05-22T04:38:03.629Z,6.02
2017-05-22T04:40:31.869Z,7.22
2017-05-22T04:43:00.120Z,6.77
2017-05-22T04:45:28.381Z,6.43
2017-05-22T04:47:56.641Z,7.65
2017-05-22T04:50:24.872Z,6.40
2017-05-22T04:52:53.122Z,7.35
2017-05-22T04:55:21.384Z,7.55
2017-05-22T04:57:49.617Z,6.65
2017-05-22T05:00:17.869Z,6.60
2017-05-22T05:02:46.124Z,7.68
2017-05-22T05:05:14.369Z,7.20
2017-05-22T05:07:42.632Z,7.88
2017-05-22T05:10:10.882Z,7.00
2017-05-22T05:12:39.120Z,7.07
2017-05-22T05:15:07.461Z,7.22
2017-05-22T05:17:35.697Z,7.57
2017-05-22T05:20:03.952Z,6.47
2017-05-22T05:22:32.205Z,8.03
2017-05-22T05:25:00.471Z,7.65
2017-05-22T05:27:28.707Z,8.12
2017-05-22T05:29:56.952Z,7.68
2017-05-22T05:32:25.232Z,6.85
2017-05-22T05:34:54.468Z,7.75
2017-05-22T05:37:22.741Z,8.25
2017-05-22T05:39:50.993Z,8.28
2017-05-22T05:42:19.265Z,8.62
2017-05-22T05:44:47.508Z,7.97
2017-05-22T05:47:15.743Z,8.35
2017-05-22T05:49:44.010Z,6.97
2017-05-22T05:52:12.297Z,7.68
2017-05-22T05:54:40.538Z,7.70
2017-05-22T05:57:08.777Z,7.42
2017-05-22T05:59:37.033Z,7.95
2017-05-22T06:02:05.276Z,7.53
2017-05-22T06:04:33.516Z,7.58
2017-05-22T06:07:01.776Z,6.30
2017-05-22T06:09:30.018Z,7.18
2017-05-22T06:11:58.285Z,6.82
2017-05-22T06:14:26.519Z,7.72
2017-05-22T06:16:54.789Z,6.65
2017-05-22T06:19:23.029Z,7.43
2017-05-22T06:21:51.293Z,6.85
2017-05-22T06:24:19.563Z,6.27
2017-05-22T06:26:47.853Z,6.40
2017-05-22T06:29:16.121Z,5.68
2017-05-22T06:31:44.382Z,5.68
2017-05-22T06:34:12.628Z,4.93
2017-05-22T06:36:40.889Z,5.80
2017-05-22T06:39:09.137Z,5.80
2017-05-22T06:41:37.400Z,6.27
2017-05-22T06:44:05.651Z,5.40
2017-05-22T06:46:33.921Z,4.42
2017-05-22T06:49:02.197Z,5.32
2017-05-22T06:51:30.432Z,4.64
2017-05-22T06:53:58.709Z,4.30
2017-05-22T06:56:26.981Z,4.74
2017-05-22T06:58:55.254Z,5.30
2017-05-22T07:01:23.516Z,4.94
2017-05-22T07:03:51.779Z,4.00
2017-05-22T07:06:20.032Z,4.32
2017-05-22T07:08:48.276Z,4.90
2017-05-22T07:11:16.540Z,4.98
2017-05-22T07:13:44.776Z,4.76
2017-05-22T07:16:13.016Z,5.18
2017-05-22T07:18:41.293Z,4.52
2017-05-22T07:21:09.537Z,4.34
2017-05-22T07:23:37.810Z,4.42
2017-05-22T07:26:06.044Z,5.18
2017-05-22T07:28:34.303Z,4.44
2017-05-22T07:31:02.568Z,4.28
2017-05-22T07:33:30.805Z,5.36
2017-05-22T07:35:59.075Z,5.74
2017-05-22T07:38:27.321Z,4.84
2017-05-22T07:40:55.557Z,5.42
2017-05-22T07:43:23.813Z,4.26
2017-05-22T07:45:52.060Z,4.44
2017-05-22T07:48:20.321Z,4.52
2017-05-22T07:50:48.561Z,3.96
2017-05-22T07:53:16.817Z,4.56
2017-05-22T07:55:45.058Z,4.78
2017-05-22T07:58:13.321Z,4.48
2017-05-22T08:00:41.562Z,4.34
2017-05-22T08:03:09.805Z,5.26
2017-05-22T08:05:38.073Z,3.46
2017-05-22T08:08:06.321Z,4.62
2017-05-22T08:10:34.577Z,5.00
2017-05-22T08:13:02.820Z,4.78
2017-05-22T08:15:31.077Z,4.64
2017-05-22T08:17:59.336Z,4.98
2017-05-22T08:20:27.576Z,4.38
2017-05-22T08:22:55.845Z,4.16
2017-05-22T08:25:24.104Z,3.90
2017-05-22T08:27:52.373Z,3.68
2017-05-22T08:30:20.624Z,4.86
2017-05-22T08:32:48.863Z,4.48
2017-05-22T08:35:17.138Z,3.94
2017-05-22T08:37:45.381Z,4.32
2017-05-22T08:40:13.647Z,4.18
2017-05-22T08:42:41.901Z,4.44
2017-05-22T08:45:10.155Z,4.44
2017-05-22T08:47:38.426Z,3.62
2017-05-22T08:50:06.665Z,4.16
2017-05-22T08:52:34.925Z,3.94
2017-05-22T08:55:03.260Z,4.50
2017-05-22T08:57:31.516Z,4.18
2017-05-22T08:59:59.759Z,3.98
2017-05-22T09:02:28.017Z,4.60
2017-05-22T09:04:56.266Z,4.54
2017-05-22T09:07:24.520Z,4.80
2017-05-22T09:09:52.767Z,4.40
2017-05-22T09:12:21.017Z,3.66
2017-05-22T09:14:49.277Z,4.46
2017-05-22T09:17:17.513Z,5.04
2017-05-22T09:19:45.769Z,3.86
2017-05-22T09:22:14.025Z,3.54
2017-05-22T09:24:42.265Z,3.28
2017-05-22T09:27:10.525Z,3.40
2017-05-22T09:29:38.764Z,3.88
2017-05-22T09:32:07.024Z,2.94
2017-05-22T09:34:35.276Z,3.64
2017-05-22T09:37:03.543Z,2.20
2017-05-22T09:39:31.796Z,3.70
2017-05-22T09:42:00.048Z,3.46
2017-05-22T09:44:28.405Z,3.14
2017-05-22T09:46:56.649Z,2.98
2017-05-22T09:49:24.909Z,3.70
2017-05-22T09:51:53.148Z,4.18
2017-05-22T09:54:21.425Z,3.38
2017-05-22T09:56:49.660Z,4.00
2017-05-22T09:59:17.906Z,3.32
2017-05-22T10:01:46.169Z,2.84
2017-05-22T10:04:14.410Z,2.98
2017-05-22T10:06:42.664Z,3.96
2017-05-22T10:09:10.901Z,2.40
2017-05-22T10:11:39.155Z,3.32
2017-05-22T10:14:07.401Z,4.18
2017-05-22T10:16:35.666Z,3.10
2017-05-22T10:19:03.924Z,3.50
2017-05-22T10:21:32.156Z,3.44
2017-05-22T10:24:00.412Z,3.52
2017-05-22T10:26:28.663Z,2.92
2017-05-22T10:28:56.925Z,3.04
2017-05-22T10:31:25.160Z,2.98
2017-05-22T10:33:53.443Z,3.20
2017-05-22T10:36:21.684Z,3.10
2017-05-22T10:38:49.928Z,3.74
2017-05-22T10:41:18.192Z,3.44
2017-05-22T10:43:46.437Z,2.78
2017-05-22T10:46:14.696Z,2.62
2017-05-22T10:48:42.949Z,3.34
2017-05-22T10:51:11.230Z,3.50
2017-05-22T10:53:39.460Z,3.00
2017-05-22T10:56:07.733Z,3.18
2017-05-22T10:58:35.976Z,4.52
2017-05-22T11:01:04.216Z,3.90
2017-05-22T11:03:32.484Z,3.56
2017-05-22T11:06:00.726Z,3.84
2017-05-22T11:08:28.962Z,3.44
2017-05-22T11:10:57.224Z,3.86
2017-05-22T11:13:25.456Z,3.34
2017-05-22T11:15:53.717Z,3.30
2017-05-22T11:18:21.961Z,3.58
2017-05-22T11:20:50.223Z,3.08
2017-05-22T11:23:18.469Z,2.80
2017-05-22T11:25:46.717Z,3.12
2017-05-22T11:28:14.988Z,3.50
2017-05-22T11:30:43.229Z,3.86
2017-05-22T11:33:11.497Z,3.68
2017-05-22T11:35:39.736Z,3.30
2017-05-22T11:38:07.980Z,3.34
2017-05-22T11:40:36.238Z,2.92
2017-05-22T11:43:04.493Z,2.64
2017-05-22T11:45:32.744Z,4.12
2017-05-22T11:48:00.988Z,3.32
2017-05-22T11:50:29.256Z,3.40
2017-05-22T11:52:57.500Z,3.14
2017-05-22T11:55:25.737Z,3.44
2017-05-22T11:57:54.004Z,3.58
2017-05-22T12:00:22.253Z,2.52
2017-05-22T12:02:50.508Z,2.84
2017-05-22T12:05:18.798Z,2.80
2017-05-22T12:07:47.056Z,3.30
2017-05-22T12:10:15.305Z,2.58
2017-05-22T12:12:43.540Z,2.66
2017-05-22T12:15:11.821Z,3.28
2017-05-22T12:17:40.060Z,3.60
2017-05-22T12:20:08.317Z,3.58
2017-05-22T12:22:36.561Z,3.62
2017-05-22T12:25:04.801Z,3.66
2017-05-22T12:27:33.061Z,4.02
2017-05-22T12:30:01.295Z,3.08
2017-05-22T12:32:29.557Z,3.76
2017-05-22T12:34:57.798Z,3.10
2017-05-22T12:37:26.039Z,3.40
2017-05-22T12:39:54.311Z,3.16
2017-05-22T12:42:22.561Z,3.50
2017-05-22T12:44:50.811Z,3.94
2017-05-22T12:47:19.061Z,3.04
2017-05-22T12:49:47.317Z,3.58
2017-05-22T12:52:15.556Z,4.16
2017-05-22T12:54:43.792Z,3.36
2017-05-22T12:57:12.052Z,3.34
2017-05-22T12:59:40.290Z,3.22
2017-05-22T13:02:08.561Z,3.50
2017-05-22T13:04:36.792Z,3.02
2017-05-22T13:07:05.049Z,3.62
2017-05-22T13:09:33.322Z,2.70
2017-05-22T13:12:01.564Z,3.78
2017-05-22T13:14:29.837Z,3.38
2017-05-22T13:16:58.076Z,2.98
2017-05-22T13:19:26.333Z,2.74
2017-05-22T13:21:54.608Z,3.50
2017-05-22T13:24:22.850Z,3.52
2017-05-22T13:26:51.104Z,4.04
2017-05-22T13:29:19.358Z,3.90
2017-05-22T13:31:47.617Z,3.38
2017-05-22T13:34:15.861Z,4.02
2017-05-22T13:36:44.114Z,3.02
2017-05-22T13:39:12.377Z,3.44
2017-05-22T13:41:40.617Z,3.30
2017-05-22T13:44:08.888Z,4.12
2017-05-22T13:46:37.128Z,4.22
2017-05-22T13:49:05.368Z,3.22
2017-05-22T13:51:33.628Z,3.74
2017-05-22T13:54:01.868Z,4.02
2017-05-22T13:56:30.140Z,3.58
2017-05-22T13:58:58.394Z,3.22
2017-05-22T14:01:26.657Z,3.82
2017-05-22T14:03:54.901Z,3.54
2017-05-22T14:06:23.141Z,3.54
2017-05-22T14:08:51.398Z,3.28
2017-05-22T14:11:19.636Z,3.64
2017-05-22T14:13:47.904Z,4.66
2017-05-22T14:16:16.149Z,3.40
2017-05-22T14:18:44.385Z,3.88
2017-05-22T14:21:12.645Z,3.98
2017-05-22T14:23:40.894Z,2.84
2017-05-22T14:26:09.157Z,3.96
2017-05-22T14:28:37.396Z,3.30
2017-05-22T14:31:05.654Z,2.74
2017-05-22T14:33:33.897Z,3.30
2017-05-22T14:36:02.144Z,3.10
2017-05-22T14:38:30.410Z,3.06
2017-05-22T14:40:58.751Z,3.34
2017-05-22T14:43:27.004Z,4.14
2017-05-22T14:45:55.248Z,3.54
2017-05-22T14:48:23.522Z,3.20
2017-05-22T14:50:51.757Z,3.50
2017-05-22T14:53:20.035Z,3.82
2017-05-22T14:55:48.286Z,3.52
2017-05-22T14:58:16.530Z,3.74
2017-05-22T15:00:44.765Z,3.34
2017-05-22T15:03:13.147Z,3.80
2017-05-22T15:05:41.380Z,3.54
2017-05-22T15:08:09.642Z,4.44
2017-05-22T15:10:37.885Z,3.10
2017-05-22T15:13:06.149Z,3.88
2017-05-22T15:15:34.412Z,4.10
2017-05-22T15:18:02.658Z,3.44
2017-05-22T15:20:30.920Z,3.92
2017-05-22T15:22:59.198Z,3.72
2017-05-22T15:25:27.465Z,3.82
2017-05-22T15:27:55.730Z,4.14
2017-05-22T15:30:23.977Z,4.90
2017-05-22T15:32:52.242Z,3.92
2017-05-22T15:35:20.492Z,5.20
2017-05-22T15:37:48.760Z,4.06
2017-05-22T15:40:17.024Z,3.80
2017-05-22T15:42:45.269Z,3.92
2017-05-22T15:45:13.541Z,4.88
2017-05-22T15:47:41.773Z,5.34
2017-05-22T15:50:10.050Z,4.20
2017-05-22T15:52:38.296Z,4.38
2017-05-22T15:55:06.562Z,3.88
2017-05-22T15:57:34.865Z,3.50
2017-05-22T16:00:03.100Z,3.92
2017-05-22T16:02:31.353Z,3.76
2017-05-22T16:04:58.836Z,4.08
2017-05-22T16:07:27.101Z,3.28
2017-05-22T16:09:55.354Z,3.82
2017-05-22T16:12:23.611Z,3.22
2017-05-22T16:14:51.873Z,3.28
2017-05-22T16:17:20.121Z,4.02
2017-05-22T16:19:48.382Z,3.60
2017-05-22T16:22:16.631Z,3.50
2017-05-22T16:24:44.904Z,3.10
2017-05-22T16:27:13.153Z,3.50
2017-05-22T16:29:41.407Z,3.34
2017-05-22T16:32:09.682Z,3.78
2017-05-22T16:34:37.922Z,3.58
2017-05-22T16:37:06.192Z,3.54
2017-05-22T16:39:34.444Z,4.18
2017-05-22T16:42:02.689Z,4.04
2017-05-22T16:44:30.952Z,3.82
2017-05-22T16:46:59.201Z,3.16
2017-05-22T16:49:27.473Z,3.80
2017-05-22T16:51:55.716Z,4.42
2017-05-22T16:54:23.998Z,3.64
2017-05-22T16:56:52.248Z,3.62
2017-05-22T16:59:20.519Z,3.84
2017-05-22T17:01:48.773Z,3.56
2017-05-22T17:04:18.074Z,3.50
2017-05-22T17:06:46.349Z,3.36
2017-05-22T17:09:14.816Z,3.32
2017-05-22T17:11:43.076Z,4.34
2017-05-22T17:14:11.312Z,3.60
2017-05-22T17:16:39.594Z,4.44
2017-05-22T17:19:07.846Z,3.86
2017-05-22T17:21:36.097Z,4.28
2017-05-22T17:24:04.373Z,3.60
2017-05-22T17:26:32.616Z,4.22
2017-05-22T17:29:00.865Z,4.22
2017-05-22T17:31:29.143Z,4.14
2017-05-22T17:33:57.388Z,3.88
2017-05-22T17:36:25.661Z,3.80
2017-05-22T17:38:53.920Z,4.10
2017-05-22T17:41:22.184Z,3.86
2017-05-22T17:43:50.440Z,4.42
2017-05-22T17:46:18.680Z,3.66
2017-05-22T17:48:46.949Z,4.12
2017-05-22T17:51:15.209Z,4.14
2017-05-22T17:53:43.496Z,4.72
2017-05-22T17:56:11.749Z,4.08
2017-05-22T17:58:39.998Z,4.20
2017-05-22T18:01:08.274Z,4.22
2017-05-22T18:03:36.533Z,4.40
2017-05-22T18:06:04.796Z,3.66
2017-05-22T18:08:33.042Z,4.12
2017-05-22T18:11:01.305Z,4.14
2017-05-22T18:13:29.551Z,4.22
2017-05-22T18:15:57.813Z,4.14
2017-05-22T18:18:26.078Z,3.48
2017-05-22T18:20:54.320Z,5.14
2017-05-22T18:23:22.565Z,4.22
2017-05-22T18:25:50.841Z,4.76
2017-05-22T18:28:19.125Z,4.06
2017-05-22T18:30:47.387Z,5.08
2017-05-22T18:33:15.643Z,4.44
2017-05-22T18:35:43.910Z,4.68
2017-05-22T18:38:12.179Z,3.64
2017-05-22T18:40:40.433Z,4.00
2017-05-22T18:43:08.705Z,3.80
2017-05-22T18:45:36.952Z,3.72
2017-05-22T18:48:05.230Z,3.76
2017-05-22T18:50:33.485Z,3.40
2017-05-22T18:53:03.454Z,3.76
2017-05-22T18:55:31.736Z,4.62
2017-05-22T18:57:59.994Z,3.62
2017-05-22T19:00:28.268Z,4.02
2017-05-22T19:02:56.513Z,4.60
2017-05-22T19:05:24.824Z,4.48
2017-05-22T19:07:53.122Z,4.00
2017-05-22T19:10:21.373Z,4.56
2017-05-22T19:12:49.649Z,4.16
2017-05-22T19:15:17.910Z,5.10
2017-05-22T19:17:46.157Z,3.78
2017-05-22T19:20:14.421Z,3.80
2017-05-22T19:22:42.914Z,4.44
2017-05-22T19:25:11.154Z,4.48
2017-05-22T19:27:39.407Z,4.16
2017-05-22T19:30:07.673Z,4.40
2017-05-22T19:32:35.934Z,4.22
2017-05-22T19:35:04.211Z,4.26
2017-05-22T19:37:32.480Z,4.55
2017-05-22T19:40:00.740Z,5.35
2017-05-22T19:42:29.029Z,5.08
2017-05-22T19:44:57.331Z,4.22
2017-05-22T19:47:25.605Z,4.80
2017-05-22T19:49:53.857Z,4.42
2017-05-22T19:52:22.134Z,5.14
2017-05-22T19:54:50.389Z,4.65
2017-05-22T19:57:18.676Z,5.88
2017-05-22T19:59:46.920Z,5.43
2017-05-22T20:02:15.177Z,5.22
2017-05-22T20:04:43.444Z,4.58
2017-05-22T20:07:11.757Z,4.63
2017-05-22T20:09:40.032Z,5.72
2017-05-22T20:12:08.273Z,4.88
2017-05-22T20:14:36.556Z,5.65
2017-05-22T20:17:04.799Z,5.20
2017-05-22T20:19:33.074Z,5.38
2017-05-22T20:22:01.356Z,5.53
2017-05-22T20:24:29.610Z,5.17
2017-05-22T20:26:57.893Z,4.70
2017-05-22T20:29:26.149Z,5.82
2017-05-22T20:31:54.398Z,4.97
2017-05-22T20:34:22.669Z,5.97
2017-05-22T20:36:50.919Z,6.12
2017-05-22T20:39:19.183Z,5.88
2017-05-22T20:41:47.453Z,6.55
2017-05-22T20:44:15.700Z,7.70
2017-05-22T20:46:43.973Z,5.78
2017-05-22T20:49:12.238Z,6.30
2017-05-22T20:51:40.506Z,7.00
2017-05-22T20:54:08.784Z,8.43
2017-05-22T20:56:37.042Z,6.93
2017-05-22T20:59:05.312Z,5.83
2017-05-22T21:01:33.568Z,5.17
2017-05-22T21:04:01.837Z,6.12
2017-05-22T21:06:30.085Z,5.65
2017-05-22T21:08:58.330Z,6.65
2017-05-22T21:11:26.605Z,7.15
2017-05-22T21:13:54.849Z,6.05
2017-05-22T21:16:23.116Z,7.67
2017-05-22T21:18:51.372Z,6.45
2017-05-22T21:21:19.608Z,8.35
2017-05-22T21:23:47.867Z,8.23
2017-05-22T21:26:16.138Z,9.82
2017-05-22T21:28:44.409Z,9.37
2017-05-22T21:31:12.661Z,7.97
2017-05-22T21:33:41.683Z,7.08
2017-05-22T21:36:09.925Z,7.80
2017-05-22T21:38:38.270Z,7.60
2017-05-22T21:41:06.511Z,7.53
2017-05-22T21:43:34.760Z,8.13
2017-05-22T21:46:03.035Z,7.77
2017-05-22T21:48:31.283Z,7.62
2017-05-22T21:50:59.565Z,8.17
2017-05-22T21:53:27.809Z,7.52
2017-05-22T21:55:56.057Z,8.70
2017-05-22T21:58:24.322Z,8.98
2017-05-22T22:00:52.567Z,9.02
2017-05-22T22:03:20.829Z,7.23
2017-05-22T22:05:49.072Z,8.73
2017-05-22T22:08:17.345Z,7.83
2017-05-22T22:10:45.592Z,9.40
2017-05-22T22:13:13.841Z,9.78
2017-05-22T22:15:42.119Z,10.15
2017-05-22T22:18:10.364Z,9.82
2017-05-22T22:20:38.708Z,10.10
2017-05-22T22:23:06.948Z,10.00
2017-05-22T22:25:35.197Z,9.33
2017-05-22T22:28:03.469Z,9.98
2017-05-22T22:30:31.712Z,10.55
2017-05-22T22:32:59.966Z,10.08
2017-05-22T22:35:28.244Z,9.38
2017-05-22T22:37:56.504Z,10.57
2017-05-22T22:40:24.774Z,9.95
2017-05-22T22:42:53.021Z,10.23
2017-05-22T22:45:21.300Z,11.57
2017-05-22T22:47:49.557Z,9.95
2017-05-22T22:50:17.804Z,10.52
2017-05-22T22:52:46.085Z,11.05
2017-05-22T22:55:14.348Z,12.97
2017-05-22T22:57:42.620Z,11.68
2017-05-22T23:00:10.895Z,12.63
2017-05-22T23:02:39.149Z,10.62
2017-05-22T23:05:07.473Z,11.15
2017-05-22T23:07:35.722Z,10.72
2017-05-22T23:10:04.002Z,9.43
2017-05-22T23:12:32.247Z,9.60
2017-05-22T23:15:00.512Z,12.68
2017-05-22T23:17:28.763Z,11.53
2017-05-22T23:19:57.037Z,10.78
2017-05-22T23:22:25.288Z,10.12
2017-05-22T23:24:53.600Z,11.32
2017-05-22T23:27:21.854Z,9.55
2017-05-22T23:29:50.114Z,11.63
2017-05-22T23:32:18.385Z,11.02
2017-05-22T23:34:46.637Z,10.10
2017-05-22T23:37:14.914Z,11.12
2017-05-22T23:39:43.164Z,11.28
2017-05-22T23:42:11.433Z,10.95
2017-05-22T23:44:39.679Z,11.60
2017-05-22T23:47:07.940Z,11.27
2017-05-22T23:49:36.221Z,12.32
2017-05-22T23:52:04.460Z,12.27
2017-05-22T23:54:32.732Z,11.35
2017-05-22T23:57:00.980Z,12.10
2017-05-22T23:59:29.253Z,12.43
